Time;durP1;ratioP1;P1;durP2;ratioP2;P2;SDS_P1;SDS_P2;PMS_P1;PMS_P2;Temp;Humidity;BMP_temperature;BMP_pressure;BME280_temperature;BME280_humidity;BME280_pressure;Samples;Min_cycle;Max_cycle;Signal;HPM_P1;HPM_P2
2022/01/25 00:31:04;;;;;;;81.13;58.00;;;3.80;99.90;;;;;;5053272;27;90571;-30
2022/01/25 00:33:33;;;;;;;82.18;58.83;;;3.80;99.90;;;;;;5053222;27;90428;-29
2022/01/25 00:36:00;;;;;;;79.78;57.90;;;3.80;99.90;;;;;;5051870;27;88510;-33
2022/01/25 00:38:26;;;;;;;83.40;56.85;;;3.80;99.90;;;;;;5052964;27;90198;-31
2022/01/25 00:40:51;;;;;;;75.57;58.33;;;3.80;99.90;;;;;;5053040;27;90574;-31
2022/01/25 00:43:17;;;;;;;72.43;56.42;;;3.80;99.90;;;;;;5053130;27;89037;-31
2022/01/25 00:45:43;;;;;;;81.78;57.05;;;3.80;99.90;;;;;;5053124;27;87779;-31
2022/01/25 00:48:18;;;;;;;77.88;56.00;;;3.80;99.90;;;;;;5053201;27;90494;-29
2022/01/25 00:50:43;;;;;;;75.45;54.45;;;3.80;99.90;;;;;;5054574;27;89753;-30
2022/01/25 00:55:53;;;;;;;81.22;57.00;;;3.80;99.90;;;;;;5056203;27;88922;-28
2022/01/25 00:58:18;;;;;;;86.63;58.65;;;3.80;99.90;;;;;;5055755;27;91913;-31
2022/01/25 01:00:44;;;;;;;81.43;56.17;;;3.80;99.90;;;;;;5057038;27;89783;-30
2022/01/25 01:03:10;;;;;;;90.15;61.70;;;3.80;99.90;;;;;;5056481;27;88839;-30
2022/01/25 01:05:37;;;;;;;77.82;57.50;;;3.70;99.90;;;;;;5055572;27;87786;-31
2022/01/25 01:08:03;;;;;;;83.32;59.70;;;3.70;99.90;;;;;;5056394;27;88917;-33
2022/01/25 01:10:28;;;;;;;82.53;60.17;;;3.80;99.90;;;;;;5055952;27;89510;-32
2022/01/25 01:13:40;;;;;;;85.15;60.30;;;3.80;99.90;;;;;;5056733;27;89238;-30
2022/01/25 01:16:00;;;;;;;78.80;59.50;;;3.70;99.90;;;;;;5056222;27;88555;-34
2022/01/25 01:37:18;;;;;;;76.38;57.28;;;3.70;99.90;;;;;;5057996;27;87521;-31
2022/01/25 01:45:10;;;;;;;80.93;60.05;;;3.70;99.90;;;;;;5055250;27;89320;-32
2022/01/25 01:47:49;;;;;;;80.38;58.10;;;3.70;99.90;;;;;;5054761;27;89531;-33
2022/01/25 01:50:26;;;;;;;78.15;57.03;;;3.70;99.90;;;;;;5055893;27;88979;-30
2022/01/25 01:52:52;;;;;;;82.45;62.10;;;3.70;99.90;;;;;;5056239;27;89734;-30
2022/01/25 01:55:18;;;;;;;81.15;56.92;;;3.70;99.90;;;;;;5055241;27;89283;-29
2022/01/25 01:57:46;;;;;;;87.07;60.35;;;3.70;99.90;;;;;;5055501;27;87892;-33
2022/01/25 02:00:13;;;;;;;84.60;59.67;;;3.70;99.90;;;;;;5055525;27;90318;-34
2022/01/25 02:02:39;;;;;;;87.03;60.88;;;3.70;99.90;;;;;;5054034;27;90089;-30
2022/01/25 02:05:05;;;;;;;81.18;58.78;;;3.70;99.90;;;;;;5055506;27;89902;-31
2022/01/25 02:07:31;;;;;;;82.22;61.40;;;3.70;99.90;;;;;;5055609;27;88657;-32
2022/01/25 02:09:56;;;;;;;84.53;59.90;;;3.70;99.90;;;;;;5054917;27;90191;-29
2022/01/25 02:12:22;;;;;;;82.00;60.10;;;3.70;99.90;;;;;;5054792;27;90923;-31
2022/01/25 02:14:48;;;;;;;84.05;59.50;;;3.70;99.90;;;;;;5055441;27;90319;-32
2022/01/25 02:17:39;;;;;;;86.65;60.83;;;3.70;99.90;;;;;;5037570;27;88153;-32
2022/01/25 02:23:23;;;;;;;81.07;58.47;;;3.70;99.90;;;;;;5055033;27;89282;-29
2022/01/25 02:25:53;;;;;;;88.07;61.45;;;3.70;99.90;;;;;;5054867;27;89992;-31
2022/01/25 02:28:19;;;;;;;82.68;60.03;;;3.70;99.90;;;;;;5054548;27;87774;-32
2022/01/25 02:30:45;;;;;;;83.03;59.50;;;3.60;99.90;;;;;;5055284;27;90449;-31
2022/01/25 02:33:11;;;;;;;89.22;61.97;;;3.60;99.90;;;;;;5054810;27;88386;-31
2022/01/25 02:35:37;;;;;;;87.53;60.22;;;3.70;99.90;;;;;;5036505;27;89542;-30
2022/01/25 02:38:03;;;;;;;85.22;60.70;;;3.60;99.90;;;;;;5036413;27;88578;-29
2022/01/25 02:40:29;;;;;;;84.85;59.72;;;3.70;99.90;;;;;;5054589;27;89618;-29
2022/01/25 02:42:54;;;;;;;80.60;59.63;;;3.60;99.90;;;;;;5054698;27;89886;-31
2022/01/25 02:45:21;;;;;;;78.80;59.05;;;3.60;99.90;;;;;;5054414;27;88652;-31
2022/01/25 02:50:31;;;;;;;82.35;59.92;;;3.60;99.90;;;;;;5054528;27;90174;-35
2022/01/25 02:52:57;;;;;;;83.82;61.50;;;3.70;99.90;;;;;;5054856;27;90023;-28
2022/01/25 02:55:22;;;;;;;90.28;60.85;;;3.60;99.90;;;;;;5054267;27;88638;-30
2022/01/25 02:57:48;;;;;;;85.57;59.55;;;3.70;99.90;;;;;;5036361;27;89108;-32
2022/01/25 03:00:15;;;;;;;78.47;57.10;;;3.60;99.90;;;;;;5054254;27;90427;-31
2022/01/25 03:02:41;;;;;;;71.97;57.10;;;3.70;99.90;;;;;;5053646;27;92434;-30
2022/01/25 03:05:08;;;;;;;79.65;56.65;;;3.60;99.90;;;;;;5053914;27;90385;-34
2022/01/25 03:07:36;;;;;;;81.13;57.33;;;3.60;99.90;;;;;;5054372;27;87736;-32
2022/01/25 03:10:03;;;;;;;84.88;59.15;;;3.60;99.90;;;;;;5054438;27;90352;-30
2022/01/25 03:12:52;;;;;;;82.93;58.70;;;3.70;99.90;;;;;;5054171;27;91058;-31
2022/01/25 03:17:54;;;;;;;80.60;58.50;;;3.70;99.90;;;;;;5054452;27;88779;-32
2022/01/25 03:20:35;;;;;;;84.53;57.05;;;3.60;99.90;;;;;;5054407;27;89691;-31
2022/01/25 03:23:06;;;;;;;80.90;56.67;;;3.60;99.90;;;;;;5054656;27;89617;-31
2022/01/25 03:25:32;;;;;;;86.47;59.40;;;3.60;99.90;;;;;;5053718;27;89136;-33
2022/01/25 03:27:58;;;;;;;75.80;58.55;;;3.60;99.90;;;;;;5053833;27;89561;-30
2022/01/25 03:30:25;;;;;;;79.78;58.47;;;3.60;99.90;;;;;;5054075;27;90345;-31
2022/01/25 03:32:51;;;;;;;76.90;55.97;;;3.60;99.90;;;;;;5054287;27;88663;-28
2022/01/25 03:35:16;;;;;;;77.47;56.47;;;3.60;99.90;;;;;;5053583;27;89609;-31
2022/01/25 03:37:42;;;;;;;80.95;57.67;;;3.60;99.90;;;;;;5053846;27;88078;-32
2022/01/25 03:40:09;;;;;;;85.22;58.25;;;3.60;99.90;;;;;;5053620;27;90193;-29
2022/01/25 03:42:37;;;;;;;74.18;55.42;;;3.60;99.90;;;;;;5035391;27;88553;-29
2022/01/25 03:45:04;;;;;;;82.75;58.53;;;3.60;99.90;;;;;;5054081;27;90182;-29
2022/01/25 03:47:43;;;;;;;81.85;56.47;;;3.60;99.90;;;;;;5053135;27;87683;-29
2022/01/25 03:50:09;;;;;;;94.82;60.83;;;3.60;99.90;;;;;;5053515;27;90294;-30
2022/01/25 03:52:36;;;;;;;82.05;57.35;;;3.60;99.90;;;;;;5053459;27;90821;-30
2022/01/25 03:55:04;;;;;;;78.88;57.95;;;3.60;99.90;;;;;;5053530;27;89412;-30
2022/01/25 03:57:29;;;;;;;85.85;57.78;;;3.60;99.90;;;;;;5053825;27;88271;-29
2022/01/25 03:59:59;;;;;;;84.68;55.83;;;3.60;99.90;;;;;;5053661;27;90237;-33
2022/01/25 04:02:27;;;;;;;82.57;58.20;;;3.60;99.90;;;;;;5053524;27;89580;-29
2022/01/25 04:04:52;;;;;;;86.35;59.63;;;3.60;99.90;;;;;;5053742;27;88825;-31
2022/01/25 04:07:27;;;;;;;78.07;55.40;;;3.60;99.90;;;;;;5054044;27;87522;-30
2022/01/25 04:09:52;;;;;;;83.95;56.80;;;3.60;99.90;;;;;;5053921;27;90255;-30
2022/01/25 04:12:19;;;;;;;85.05;57.08;;;3.60;99.90;;;;;;5053217;27;89891;-31
2022/01/25 04:14:45;;;;;;;82.53;58.65;;;3.60;99.90;;;;;;5053347;27;89924;-28
2022/01/25 04:17:13;;;;;;;90.53;60.10;;;3.60;99.90;;;;;;5053184;27;88506;-31
2022/01/25 04:19:46;;;;;;;82.03;57.92;;;3.60;99.90;;;;;;5053272;27;88910;-30
2022/01/25 04:27:27;;;;;;;80.80;56.67;;;3.60;99.90;;;;;;5057252;27;89615;-34
2022/01/25 04:29:53;;;;;;;87.93;62.13;;;3.60;99.90;;;;;;5056769;27;90318;-32
2022/01/25 04:32:33;;;;;;;81.97;58.35;;;3.60;99.90;;;;;;5057095;27;89581;-30
2022/01/25 04:35:14;;;;;;;87.68;61.17;;;3.60;99.90;;;;;;5056711;27;88463;-31
2022/01/25 04:49:04;;;;;;;81.93;58.65;;;3.60;99.90;;;;;;5056760;27;88086;-30
2022/01/25 04:52:07;;;;;;;83.40;58.40;;;3.60;99.90;;;;;;5037908;27;90082;-30
2022/01/25 04:59:38;;;;;;;87.45;59.15;;;3.60;99.90;;;;;;5057031;27;87691;-30
2022/01/25 05:05:02;;;;;;;84.28;61.53;;;3.60;99.90;;;;;;5026225;27;89980;-29
2022/01/25 05:07:36;;;;;;;82.18;58.20;;;3.60;99.90;;;;;;5055939;27;89761;-32
2022/01/25 05:10:03;;;;;;;80.78;57.05;;;3.60;99.90;;;;;;5056210;27;89028;-29
2022/01/25 05:12:41;;;;;;;84.97;57.88;;;3.60;99.90;;;;;;5055623;27;90468;-30
2022/01/25 05:16:00;;;;;;;82.70;58.35;;;3.60;99.90;;;;;;5056166;27;89626;-35
2022/01/25 05:23:28;;;;;;;81.25;57.38;;;3.60;99.90;;;;;;5056229;27;90070;-31
2022/01/25 05:25:54;;;;;;;82.03;59.22;;;3.60;99.90;;;;;;5056549;27;89548;-31
2022/01/25 05:28:20;;;;;;;82.07;58.42;;;3.60;99.90;;;;;;5056226;27;90029;-32
2022/01/25 05:30:45;;;;;;;84.28;58.78;;;3.60;99.90;;;;;;5056177;27;87929;-30
2022/01/25 05:33:11;;;;;;;81.78;57.60;;;3.60;99.90;;;;;;5055669;27;89501;-34
2022/01/25 05:35:37;;;;;;;93.72;60.92;;;3.60;99.90;;;;;;5054873;27;89921;-29
2022/01/25 05:38:03;;;;;;;92.05;61.20;;;3.60;99.90;;;;;;5056658;27;90561;-31
2022/01/25 05:40:43;;;;;;;84.90;57.80;;;3.60;99.90;;;;;;5056145;27;88199;-30
2022/01/25 05:44:01;;;;;;;81.35;56.50;;;3.60;99.90;;;;;;5055593;27;88898;-30
2022/01/25 05:48:24;;;;;;;91.85;58.85;;;3.60;99.90;;;;;;5055652;27;89526;-31
2022/01/25 05:50:51;;;;;;;85.75;57.70;;;3.60;99.90;;;;;;5055751;27;87977;-30
2022/01/25 05:53:17;;;;;;;88.07;58.72;;;3.60;99.90;;;;;;5056022;27;90380;-30
2022/01/25 05:55:42;;;;;;;79.32;55.85;;;3.60;99.90;;;;;;5055290;27;88643;-29
2022/01/25 05:58:08;;;;;;;87.40;58.50;;;3.60;99.90;;;;;;5055755;27;89766;-31
2022/01/25 06:00:34;;;;;;;90.30;58.70;;;3.60;99.90;;;;;;5054927;27;88561;-31
2022/01/25 06:03:01;;;;;;;84.60;58.80;;;3.60;99.90;;;;;;5054914;27;90541;-32
2022/01/25 06:05:26;;;;;;;75.10;53.83;;;3.50;99.90;;;;;;5055901;27;89736;-29
2022/01/25 06:07:52;;;;;;;80.32;57.47;;;3.50;99.90;;;;;;5054990;27;89228;-30
2022/01/25 06:10:18;;;;;;;88.93;60.33;;;3.60;99.90;;;;;;5055367;27;87611;-33
2022/01/25 06:12:45;;;;;;;84.82;58.63;;;3.60;99.90;;;;;;5054702;27;90606;-31
2022/01/25 06:15:11;;;;;;;83.55;57.60;;;3.60;99.90;;;;;;5055276;27;89962;-30
2022/01/25 06:17:37;;;;;;;83.53;58.88;;;3.60;99.90;;;;;;5055275;27;89440;-30
2022/01/25 06:20:03;;;;;;;81.97;57.85;;;3.60;99.90;;;;;;5055592;27;88328;-33
2022/01/25 06:22:29;;;;;;;82.57;59.42;;;3.60;99.90;;;;;;5055326;27;90425;-30
2022/01/25 06:24:55;;;;;;;79.25;56.70;;;3.60;99.90;;;;;;5054273;27;90641;-33
2022/01/25 06:27:21;;;;;;;76.55;55.85;;;3.50;99.90;;;;;;5055122;27;90223;-30
2022/01/25 06:29:47;;;;;;;88.65;60.60;;;3.50;99.90;;;;;;5054619;27;87441;-29
2022/01/25 06:32:13;;;;;;;80.45;56.90;;;3.50;99.90;;;;;;5054132;27;90354;-31
2022/01/25 06:34:39;;;;;;;82.68;58.20;;;3.60;99.90;;;;;;5036262;27;89483;-29
2022/01/25 06:37:05;;;;;;;89.20;60.30;;;3.60;99.90;;;;;;5036400;27;89800;-29
2022/01/25 06:39:30;;;;;;;82.80;56.67;;;3.60;99.90;;;;;;5055316;27;87575;-29
2022/01/25 06:41:56;;;;;;;83.20;58.55;;;3.50;99.90;;;;;;5054282;27;90078;-32
2022/01/25 06:44:22;;;;;;;83.85;59.45;;;3.50;99.90;;;;;;5055012;27;89759;-32
2022/01/25 06:46:47;;;;;;;84.95;56.20;;;3.60;99.90;;;;;;5054293;27;87819;-32
2022/01/25 06:49:14;;;;;;;79.75;58.38;;;3.60;99.90;;;;;;5053749;27;88264;-29
2022/01/25 06:51:40;;;;;;;85.47;58.30;;;3.60;99.90;;;;;;5053891;27;90662;-31
2022/01/25 06:54:06;;;;;;;85.18;58.58;;;3.60;99.90;;;;;;5054338;27;89622;-33
2022/01/25 06:56:32;;;;;;;92.80;60.60;;;3.60;99.90;;;;;;5054819;27;88354;-32
2022/01/25 06:58:58;;;;;;;80.82;57.20;;;3.60;99.90;;;;;;5054811;27;88258;-31
2022/01/25 07:01:23;;;;;;;76.38;55.92;;;3.60;99.90;;;;;;5054663;27;90315;-31
2022/01/25 07:03:49;;;;;;;86.13;56.88;;;3.60;99.90;;;;;;5054321;27;89851;-30
2022/01/25 07:06:15;;;;;;;89.68;60.72;;;3.60;99.90;;;;;;5054669;27;89910;-29
2022/01/25 07:08:43;;;;;;;81.55;56.55;;;3.60;99.90;;;;;;5054662;27;87676;-30
2022/01/25 07:11:09;;;;;;;80.82;56.25;;;3.60;99.90;;;;;;5054474;27;90266;-30
2022/01/25 07:13:35;;;;;;;85.07;58.50;;;3.60;99.90;;;;;;5053754;27;90381;-30
2022/01/25 07:16:00;;;;;;;83.97;56.97;;;3.60;99.90;;;;;;5054417;27;90542;-30
2022/01/25 07:18:26;;;;;;;87.70;55.35;;;3.60;99.90;;;;;;5054634;27;87595;-29
2022/01/25 07:20:51;;;;;;;80.82;55.90;;;3.60;99.90;;;;;;5054126;27;90190;-32
2022/01/25 07:23:17;;;;;;;80.30;56.65;;;3.60;99.90;;;;;;5054316;27;89733;-29
2022/01/25 07:25:42;;;;;;;86.13;59.00;;;3.60;99.90;;;;;;5054514;27;89488;-30
2022/01/25 07:28:08;;;;;;;84.07;58.72;;;3.60;99.90;;;;;;5052836;27;87652;-32
2022/01/25 07:30:33;;;;;;;79.85;56.78;;;3.60;99.90;;;;;;5054467;27;90003;-31
2022/01/25 07:33:05;;;;;;;93.97;56.47;;;3.60;99.90;;;;;;5053964;27;89499;-30
2022/01/25 07:35:32;;;;;;;85.63;57.17;;;3.60;99.90;;;;;;5054094;27;90095;-33
2022/01/25 07:37:57;;;;;;;78.20;59.50;;;3.80;99.90;;;;;;5053523;27;88813;-33
2022/01/25 07:40:23;;;;;;;77.13;52.60;;;3.70;99.90;;;;;;5048306;27;89297;-31
2022/01/25 07:42:49;;;;;;;79.82;54.92;;;3.70;99.90;;;;;;5030985;27;89708;-30
2022/01/25 07:45:14;;;;;;;76.78;55.47;;;3.60;99.90;;;;;;5031905;28;89424;-29
2022/01/25 07:47:40;;;;;;;82.05;53.83;;;3.60;99.90;;;;;;5030561;28;88701;-31
2022/01/25 07:50:08;;;;;;;78.30;55.00;;;3.60;99.90;;;;;;5029093;28;90708;-31
2022/01/25 07:52:33;;;;;;;78.30;56.58;;;3.60;99.90;;;;;;5031158;28;89753;-31
2022/01/25 07:54:59;;;;;;;76.53;56.72;;;3.60;99.90;;;;;;5030885;28;90086;-29
2022/01/25 07:57:25;;;;;;;81.10;54.97;;;3.60;99.90;;;;;;5031598;28;88509;-30
2022/01/25 07:59:51;;;;;;;81.55;57.22;;;3.60;99.90;;;;;;5029579;28;89162;-31
2022/01/25 08:02:18;;;;;;;81.55;57.42;;;3.60;99.90;;;;;;5030339;28;89872;-31
2022/01/25 08:04:44;;;;;;;89.38;58.85;;;3.60;99.90;;;;;;5030465;28;90489;-31
2022/01/25 08:07:10;;;;;;;82.30;55.35;;;3.60;99.90;;;;;;5030847;28;87746;-31
2022/01/25 08:09:35;;;;;;;80.13;55.40;;;3.60;99.90;;;;;;5030855;28;90588;-32
2022/01/25 08:12:01;;;;;;;78.07;54.95;;;3.60;99.90;;;;;;5030634;28;89597;-30
2022/01/25 08:14:26;;;;;;;84.85;56.10;;;3.70;99.90;;;;;;5030443;28;89433;-29
2022/01/25 08:16:52;;;;;;;79.68;55.25;;;3.70;99.90;;;;;;5030230;28;88499;-30
2022/01/25 08:19:19;;;;;;;83.18;57.60;;;3.70;99.90;;;;;;5030832;28;90411;-30
2022/01/25 08:21:46;;;;;;;82.90;57.00;;;3.70;99.90;;;;;;5030607;28;89801;-29
2022/01/25 08:24:13;;;;;;;82.72;57.88;;;3.70;99.90;;;;;;5030473;28;89843;-31
2022/01/25 08:26:41;;;;;;;84.30;56.63;;;3.70;99.90;;;;;;5029911;28;88000;-33
2022/01/25 08:29:07;;;;;;;81.43;58.33;;;3.70;99.90;;;;;;5030650;28;90412;-30
2022/01/25 08:31:34;;;;;;;83.65;56.45;;;3.70;99.90;;;;;;5030369;28;88759;-30
2022/01/25 08:34:00;;;;;;;79.85;57.65;;;3.70;99.90;;;;;;5030526;28;88635;-32
2022/01/25 08:36:27;;;;;;;85.05;57.55;;;3.70;99.90;;;;;;5030532;28;88219;-30
2022/01/25 08:38:53;;;;;;;85.20;57.25;;;3.70;99.90;;;;;;5029907;28;89296;-30
2022/01/25 08:41:19;;;;;;;85.75;58.17;;;3.70;99.90;;;;;;5030191;28;89715;-29
2022/01/25 08:43:45;;;;;;;88.75;58.33;;;3.70;99.90;;;;;;5030628;28;90439;-32
2022/01/25 08:46:12;;;;;;;85.82;56.63;;;3.70;99.90;;;;;;5030046;28;88523;-34
2022/01/25 08:48:37;;;;;;;86.38;57.45;;;3.70;99.90;;;;;;5030691;28;90204;-29
2022/01/25 08:51:04;;;;;;;81.63;55.80;;;3.70;99.90;;;;;;5030246;28;90659;-30
2022/01/25 08:53:30;;;;;;;86.97;57.85;;;3.80;99.90;;;;;;5030387;28;89058;-30
2022/01/25 08:55:56;;;;;;;78.70;54.13;;;3.70;99.90;;;;;;5030253;28;88691;-30
2022/01/25 08:58:22;;;;;;;76.90;56.22;;;3.70;99.90;;;;;;5030339;28;90099;-32
2022/01/25 09:00:48;;;;;;;81.13;57.90;;;3.70;99.90;;;;;;5030099;28;89889;-33
2022/01/25 09:03:13;;;;;;;85.47;59.85;;;3.80;99.90;;;;;;5030441;28;89131;-29
2022/01/25 09:05:39;;;;;;;82.68;56.17;;;3.70;99.90;;;;;;5029667;28;87975;-31
2022/01/25 09:08:05;;;;;;;83.97;57.65;;;3.80;99.90;;;;;;5030565;28;88856;-31
2022/01/25 09:10:32;;;;;;;83.75;58.63;;;3.80;99.90;;;;;;5030325;28;88935;-31
2022/01/25 09:12:58;;;;;;;86.35;62.08;;;3.80;99.90;;;;;;5033448;28;89525;-29
2022/01/25 09:15:24;;;;;;;85.47;60.40;;;3.80;99.90;;;;;;5033176;28;88872;-33
2022/01/25 09:17:50;;;;;;;85.55;55.95;;;3.80;99.90;;;;;;5033480;28;90361;-30
2022/01/25 09:20:16;;;;;;;84.70;56.03;;;3.80;99.90;;;;;;5033700;28;90487;-30
2022/01/25 09:22:42;;;;;;;87.53;54.55;;;3.80;99.90;;;;;;5033403;28;89507;-31
2022/01/25 09:25:09;;;;;;;84.53;57.95;;;3.80;99.90;;;;;;5033296;28;87749;-32
2022/01/25 09:27:35;;;;;;;83.28;57.72;;;3.80;99.90;;;;;;5032899;28;89536;-33
2022/01/25 09:30:01;;;;;;;88.35;56.72;;;3.80;99.90;;;;;;5033594;28;88590;-29
2022/01/25 09:32:26;;;;;;;84.55;58.42;;;3.80;99.90;;;;;;5033186;28;88436;-32
2022/01/25 09:34:52;;;;;;;86.88;56.60;;;3.80;99.90;;;;;;5033022;28;87586;-32
2022/01/25 09:37:18;;;;;;;77.93;56.83;;;3.90;99.90;;;;;;5033195;28;90862;-29
2022/01/25 09:39:43;;;;;;;87.25;57.38;;;3.90;99.90;;;;;;5032425;28;89738;-30
2022/01/25 09:42:10;;;;;;;85.97;58.35;;;3.90;99.90;;;;;;5033063;28;90911;-31
2022/01/25 09:44:38;;;;;;;81.90;55.28;;;3.90;99.90;;;;;;5032601;28;87689;-29
2022/01/25 09:47:04;;;;;;;75.95;53.13;;;3.90;99.90;;;;;;5032673;28;90511;-34
2022/01/25 09:49:32;;;;;;;82.30;55.55;;;3.90;99.90;;;;;;5014981;28;89502;-29
2022/01/25 09:52:06;;;;;;;77.20;54.10;;;3.90;99.90;;;;;;5033029;28;89712;-30
2022/01/25 09:54:35;;;;;;;85.82;55.90;;;3.90;99.90;;;;;;5033039;28;87548;-33
2022/01/25 09:57:02;;;;;;;77.88;55.58;;;4.00;99.90;;;;;;5033058;28;90094;-30
2022/01/25 09:59:29;;;;;;;82.37;52.67;;;4.00;99.90;;;;;;5032790;28;89942;-33
2022/01/25 10:01:55;;;;;;;79.57;53.10;;;4.00;99.90;;;;;;5032200;28;89879;-33
2022/01/25 10:04:28;;;;;;;88.97;53.90;;;4.00;99.90;;;;;;5032751;27;87979;-30
2022/01/25 10:06:53;;;;;;;85.50;53.70;;;4.00;99.90;;;;;;5032200;28;90128;-29
2022/01/25 10:09:20;;;;;;;74.40;53.15;;;4.10;99.90;;;;;;5032400;28;89664;-32
2022/01/25 10:11:47;;;;;;;83.28;56.53;;;4.10;99.90;;;;;;5032331;28;89391;-30
2022/01/25 10:14:13;;;;;;;89.72;56.35;;;4.10;99.90;;;;;;5032767;28;88100;-32
2022/01/25 10:16:42;;;;;;;83.20;53.15;;;4.10;99.90;;;;;;5032123;28;90391;-32
2022/01/25 10:19:11;;;;;;;85.88;56.90;;;4.10;99.90;;;;;;5032722;28;90082;-30
2022/01/25 10:21:38;;;;;;;78.53;53.08;;;4.10;99.90;;;;;;5032218;28;89141;-30
2022/01/25 10:24:07;;;;;;;81.80;54.27;;;4.20;99.90;;;;;;5031360;27;88665;-32
2022/01/25 10:26:56;;;;;;;76.45;50.78;;;4.20;99.90;;;;;;5032177;28;90353;-32
2022/01/25 10:29:29;;;;;;;85.88;56.67;;;4.20;99.90;;;;;;5032138;28;90479;-29
2022/01/25 10:31:58;;;;;;;77.80;55.35;;;4.20;99.90;;;;;;5032492;28;90622;-31
2022/01/25 10:34:26;;;;;;;87.40;56.80;;;4.20;99.90;;;;;;5032340;28;87734;-30
2022/01/25 10:36:53;;;;;;;91.00;57.65;;;4.20;99.90;;;;;;5031758;28;90601;-30
2022/01/25 10:39:28;;;;;;;78.45;55.03;;;4.20;99.90;;;;;;5032094;28;88145;-32
2022/01/25 10:42:06;;;;;;;81.70;54.95;;;4.20;99.90;;;;;;5029944;28;89501;-30
2022/01/25 10:44:54;;;;;;;84.40;57.00;;;4.20;99.90;;;;;;5032085;28;87906;-31
2022/01/25 10:47:36;;;;;;;;;;;4.20;99.90;;;;;;5032609;28;89616;-31
2022/01/25 10:50:16;;;;;;;84.22;53.80;;;4.20;99.90;;;;;;5033255;28;114890;-32
2022/01/25 10:52:41;;;;;;;83.03;55.97;;;4.20;99.90;;;;;;5031916;28;89638;-30
2022/01/25 10:55:08;;;;;;;81.68;55.92;;;4.20;99.90;;;;;;5031785;28;88370;-33
2022/01/25 10:57:34;;;;;;;77.65;55.97;;;4.30;99.90;;;;;;5031615;28;90270;-31
2022/01/25 11:00:06;;;;;;;91.18;57.20;;;4.30;99.90;;;;;;5031722;28;90099;-30
2022/01/25 11:02:33;;;;;;;75.85;52.75;;;4.30;99.90;;;;;;5031706;28;89265;-33
2022/01/25 11:05:07;;;;;;;83.18;56.38;;;4.30;99.90;;;;;;5032009;28;88253;-32
2022/01/25 11:07:38;;;;;;;78.95;53.42;;;4.30;99.90;;;;;;5031861;28;90676;-30
2022/01/25 11:10:04;;;;;;;74.10;52.53;;;4.30;99.90;;;;;;5032213;28;89451;-29
2022/01/25 11:12:36;;;;;;;86.47;54.75;;;4.30;99.90;;;;;;5031853;28;90265;-30
2022/01/25 11:15:03;;;;;;;92.53;57.85;;;4.30;99.90;;;;;;5032032;28;88909;-30
2022/01/25 11:17:31;;;;;;;88.63;56.08;;;4.30;99.90;;;;;;5031928;28;89312;-30
2022/01/25 11:19:58;;;;;;;92.55;57.40;;;4.30;99.90;;;;;;5031178;28;90424;-30
2022/01/25 11:22:25;;;;;;;77.90;53.43;;;4.30;99.90;;;;;;5031928;28;89138;-33
2022/01/25 11:24:57;;;;;;;88.43;56.67;;;4.30;99.90;;;;;;5031817;28;87974;-31
2022/01/25 11:27:26;;;;;;;78.18;52.58;;;4.30;99.90;;;;;;5031607;28;90324;-30
2022/01/25 11:29:55;;;;;;;85.07;54.33;;;4.30;99.90;;;;;;5031562;28;90351;-31
2022/01/25 11:32:25;;;;;;;83.68;55.63;;;4.30;99.90;;;;;;5031623;28;90558;-30
2022/01/25 11:34:52;;;;;;;78.80;56.25;;;4.30;99.90;;;;;;5030948;28;88310;-31
2022/01/25 11:37:18;;;;;;;83.75;55.42;;;4.30;99.90;;;;;;5031645;28;89241;-31
2022/01/25 11:39:47;;;;;;;84.68;56.00;;;4.30;99.90;;;;;;5031483;28;89683;-34
2022/01/25 11:42:22;;;;;;;84.15;57.75;;;4.30;99.90;;;;;;5031292;28;89814;-30
2022/01/25 11:44:52;;;;;;;78.40;51.75;;;4.30;99.90;;;;;;5030018;28;88543;-33
2022/01/25 11:47:21;;;;;;;83.45;56.28;;;4.30;99.90;;;;;;5058571;22;90632;-31
2022/01/25 11:49:59;;;;;;;78.30;53.70;;;4.30;99.90;;;;;;5031104;28;88028;-32
2022/01/25 11:52:26;;;;;;;82.00;57.63;;;4.30;99.90;;;;;;5031153;28;89528;-30
2022/01/25 11:55:17;;;;;;;84.60;56.13;;;4.40;99.90;;;;;;5031211;28;88640;-33
2022/01/25 11:57:48;;;;;;;92.28;57.35;;;4.40;99.90;;;;;;5030902;28;90315;-30
2022/01/25 12:00:14;;;;;;;79.40;56.10;;;4.40;99.90;;;;;;5031542;28;89988;-29
2022/01/25 12:02:46;;;;;;;83.47;55.50;;;4.40;99.90;;;;;;5031086;28;89593;-32
2022/01/25 12:05:14;;;;;;;92.60;57.63;;;4.40;99.90;;;;;;5031317;28;88668;-32
2022/01/25 12:08:06;;;;;;;89.15;55.55;;;4.30;99.90;;;;;;5030539;28;89600;-30
2022/01/25 12:10:41;;;;;;;87.75;53.65;;;4.40;99.90;;;;;;5031490;27;90525;-33
2022/01/25 12:13:20;;;;;;;81.72;55.72;;;4.40;99.90;;;;;;5050739;27;89474;-30
2022/01/25 12:16:28;;;;;;;85.88;54.50;;;4.40;99.90;;;;;;5050555;27;88123;-31
2022/01/25 12:18:57;;;;;;;78.63;54.60;;;4.40;99.90;;;;;;5050960;27;90325;-31
2022/01/25 12:21:54;;;;;;;83.63;55.22;;;4.40;99.90;;;;;;5051258;27;88477;-32
2022/01/25 12:24:38;;;;;;;79.88;51.22;;;4.40;99.90;;;;;;5032784;27;89807;-33
2022/01/25 12:27:29;;;;;;;92.05;53.85;;;4.40;99.90;;;;;;5051114;27;88708;-32
2022/01/25 12:30:08;;;;;;;83.40;55.15;;;4.40;99.90;;;;;;5050931;27;88941;-32
2022/01/25 12:33:02;;;;;;;81.45;53.22;;;4.30;99.90;;;;;;5050650;27;89147;-30
2022/01/25 12:36:01;;;;;;;84.07;55.38;;;4.30;99.90;;;;;;5050874;27;89707;-33
2022/01/25 12:38:38;;;;;;;84.80;54.95;;;4.30;99.90;;;;;;5050158;27;89952;-31
2022/01/25 12:41:21;;;;;;;77.33;49.73;;;4.30;99.90;;;;;;5050963;27;90211;-33
2022/01/25 12:43:53;;;;;;;84.07;58.05;;;4.30;99.90;;;;;;5050249;27;89531;-29
2022/01/25 12:46:21;;;;;;;88.32;54.25;;;4.30;99.90;;;;;;5057444;27;90662;-30
2022/01/25 12:48:58;;;;;;;86.43;56.35;;;4.30;99.90;;;;;;5075089;27;88515;-31
2022/01/25 12:51:28;;;;;;;75.45;53.50;;;4.40;99.90;;;;;;5074540;27;90569;-31
2022/01/25 12:54:01;;;;;;;77.68;53.42;;;4.30;99.90;;;;;;5074296;27;90167;-32
2022/01/25 12:56:35;;;;;;;83.93;54.97;;;4.30;99.90;;;;;;5074787;27;90301;-30
2022/01/25 12:59:07;;;;;;;83.45;52.40;;;4.30;99.90;;;;;;5074641;27;87585;-30
2022/01/25 13:01:38;;;;;;;84.18;52.25;;;4.30;99.90;;;;;;5074789;27;90644;-33
2022/01/25 13:04:06;;;;;;;85.28;54.53;;;4.30;99.90;;;;;;5072204;27;89585;-30
2022/01/25 13:06:34;;;;;;;74.07;49.67;;;4.30;99.90;;;;;;5056237;27;90665;-33
2022/01/25 13:14:30;;;;;;;82.72;51.78;;;4.30;99.90;;;;;;5074270;27;89585;-31
2022/01/25 13:17:13;;;;;;;83.95;57.00;;;4.30;99.90;;;;;;5074076;27;90024;-31
2022/01/25 13:19:45;;;;;;;84.07;55.08;;;4.30;99.90;;;;;;5074630;27;87886;-32
2022/01/25 13:22:14;;;;;;;88.40;55.10;;;4.30;99.90;;;;;;5074195;27;90802;-33
2022/01/25 13:24:55;;;;;;;83.95;54.05;;;4.30;99.90;;;;;;5073783;27;89665;-32
2022/01/25 13:27:21;;;;;;;79.82;55.28;;;4.30;99.90;;;;;;5073939;27;88388;-32
2022/01/25 13:32:39;;;;;;;82.95;52.92;;;4.30;99.90;;;;;;5073783;27;90157;-34
2022/01/25 13:38:02;;;;;;;79.05;54.25;;;4.30;99.90;;;;;;5073787;27;90290;-31
2022/01/25 13:40:36;;;;;;;81.28;53.97;;;4.30;99.90;;;;;;5073632;27;88377;-31
2022/01/25 13:43:29;;;;;;;91.38;54.22;;;4.30;99.90;;;;;;5073707;27;90758;-30
2022/01/25 13:45:58;;;;;;;89.28;55.58;;;4.30;99.90;;;;;;5073385;27;90108;-31
2022/01/25 13:48:27;;;;;;;78.95;54.13;;;4.30;99.90;;;;;;5074105;27;89605;-31
2022/01/25 13:50:56;;;;;;;;;;;4.30;99.90;;;;;;5074271;27;87979;-31
2022/01/25 13:53:22;;;;;;;80.70;53.35;;;4.30;99.90;;;;;;5071524;27;90592;-32
2022/01/25 13:55:49;;;;;;;81.00;53.67;;;4.30;99.90;;;;;;5067431;27;90993;-34
2022/01/25 13:58:43;;;;;;;87.82;51.33;;;4.30;99.90;;;;;;5046960;27;91316;-34
2022/01/25 14:01:10;;;;;;;85.57;54.10;;;4.30;99.90;;;;;;5048525;27;88361;-30
2022/01/25 14:03:42;;;;;;;88.77;56.27;;;4.30;99.90;;;;;;5054370;27;89253;-29
2022/01/25 14:06:35;;;;;;;73.35;52.03;;;4.30;99.90;;;;;;5047199;27;90044;-32
2022/01/25 14:09:14;;;;;;;82.55;54.53;;;4.30;99.90;;;;;;5047175;27;90079;-30
2022/01/25 14:22:53;;;;;;;76.20;52.83;;;4.30;99.90;;;;;;5002167;27;88176;-34
2022/01/25 14:25:32;;;;;;;80.78;53.20;;;4.40;99.90;;;;;;5046449;27;89363;-30
2022/01/25 14:28:00;;;;;;;79.72;54.13;;;4.30;99.90;;;;;;5046815;27;88346;-31
2022/01/25 14:30:36;;;;;;;82.17;51.63;;;4.30;99.90;;;;;;5046904;27;89712;-29
2022/01/25 14:33:17;;;;;;;75.03;51.53;;;4.30;99.90;;;;;;5047336;27;88482;-31
2022/01/25 14:36:00;;;;;;;77.57;53.30;;;4.30;99.90;;;;;;5046033;27;90437;-34
2022/01/25 14:38:34;;;;;;;73.63;52.05;;;4.30;99.90;;;;;;5046552;27;89034;-30
2022/01/25 14:41:09;;;;;;;79.10;52.42;;;4.40;99.90;;;;;;5050440;27;88249;-31
2022/01/25 14:43:53;;;;;;;83.40;51.90;;;4.40;99.90;;;;;;5067009;27;88815;-37
2022/01/25 14:46:24;;;;;;;71.30;49.10;;;4.40;99.90;;;;;;5065585;27;90157;-34
2022/01/25 14:49:02;;;;;;;76.72;51.20;;;4.40;99.90;;;;;;5065869;27;91138;-30
2022/01/25 14:51:33;;;;;;;74.55;50.20;;;4.40;99.90;;;;;;5057508;27;90988;-31